createdAt,value
2018-05-18T04:10:47.570Z,11.3
2018-05-18T04:11:13.112Z,11.27
2018-05-18T04:11:38.644Z,11.19
2018-05-18T04:12:04.105Z,11.32
2018-05-18T04:12:29.537Z,11.33
2018-05-18T04:12:54.969Z,11.35
2018-05-18T04:13:20.434Z,11.3
2018-05-18T04:13:45.923Z,11.23
2018-05-18T04:14:11.302Z,11.18
2018-05-18T04:14:36.776Z,11.18
2018-05-18T04:15:02.272Z,11.18
2018-05-18T04:15:27.717Z,11.19
2018-05-18T04:15:53.260Z,11.22
2018-05-18T04:16:18.718Z,11.15
2018-05-18T04:16:44.205Z,11.32
2018-05-18T04:17:09.639Z,11.15
2018-05-18T04:17:35.067Z,11.26
2018-05-18T04:18:00.618Z,11.17
2018-05-18T04:18:26.100Z,11.19
2018-05-18T04:18:51.562Z,11.19
2018-05-18T04:19:17.104Z,11.22
2018-05-18T04:19:42.599Z,11.3
2018-05-18T04:20:08.190Z,11.27
2018-05-18T04:20:33.647Z,11.32
2018-05-18T04:20:59.108Z,11.18
2018-05-18T04:21:24.641Z,11.15
2018-05-18T04:21:50.078Z,11.3
2018-05-18T04:22:15.574Z,11.19
2018-05-18T04:22:41.040Z,11.25
2018-05-18T04:23:06.518Z,11.17
2018-05-18T04:23:32.035Z,11.19
2018-05-18T04:23:57.512Z,11.22
2018-05-18T04:24:23.135Z,11.35
2018-05-18T04:24:48.610Z,11.17
2018-05-18T04:25:14.141Z,11.17
2018-05-18T04:25:39.628Z,11.23
2018-05-18T04:26:05.146Z,11.32
2018-05-18T04:26:30.588Z,11.32
2018-05-18T04:26:56.071Z,11.3
2018-05-18T04:27:21.521Z,11.33
2018-05-18T04:27:47.018Z,11.22
2018-05-18T04:28:12.532Z,11.19
2018-05-18T04:28:38.010Z,11.32
2018-05-18T04:29:03.467Z,11.19
2018-05-18T04:29:28.932Z,11.19
2018-05-18T04:29:54.518Z,11.19
2018-05-18T04:30:20.406Z,11.26
2018-05-18T04:30:45.721Z,11.3
2018-05-18T04:31:11.114Z,11.29
2018-05-18T04:31:36.795Z,11.25
2018-05-18T04:32:02.177Z,11.35
2018-05-18T04:32:27.540Z,11.29
2018-05-18T04:32:53.216Z,11.27
2018-05-18T04:33:18.606Z,11.29
2018-05-18T04:33:44.198Z,11.27
2018-05-18T04:34:09.563Z,11.26
2018-05-18T04:34:35.133Z,11.32
2018-05-18T04:35:01.129Z,11.29
2018-05-18T04:35:26.401Z,11.23
2018-05-18T04:35:51.931Z,11.32
2018-05-18T04:36:17.398Z,11.32
2018-05-18T04:36:42.933Z,11.3
2018-05-18T04:37:08.466Z,11.27
2018-05-18T04:37:34.031Z,11.23
2018-05-18T04:37:59.508Z,11.35
2018-05-18T04:38:24.964Z,11.4
2018-05-18T04:38:50.441Z,11.32
2018-05-18T04:39:16.093Z,11.32
2018-05-18T04:39:41.653Z,11.35
2018-05-18T04:40:07.063Z,11.3
2018-05-18T04:40:32.765Z,11.41
2018-05-18T04:40:58.939Z,11.37
2018-05-18T04:41:24.042Z,11.3
2018-05-18T04:41:49.350Z,11.37
2018-05-18T04:42:14.887Z,11.37
2018-05-18T04:42:40.514Z,11.36
2018-05-18T04:43:05.899Z,11.3
2018-05-18T04:43:31.473Z,11.3
2018-05-18T04:43:56.927Z,11.32
2018-05-18T04:44:22.452Z,11.32
2018-05-18T04:44:51.810Z,11.37
2018-05-18T04:45:18.430Z,11.33
2018-05-18T04:45:45.520Z,11.29
2018-05-18T04:46:53.888Z,11.27
2018-05-18T04:47:47.509Z,11.43
2018-05-18T04:48:56.195Z,11.29
2018-05-18T04:49:26.553Z,11.4
2018-05-18T04:49:59.155Z,11.4
2018-05-18T04:50:26.216Z,11.32
2018-05-18T04:50:51.726Z,11.43
2018-05-18T04:51:17.429Z,11.35
2018-05-18T04:51:42.875Z,11.36
2018-05-18T04:52:08.309Z,11.51
2018-05-18T04:52:33.834Z,11.41
2018-05-18T04:52:59.388Z,11.41
2018-05-18T04:53:24.885Z,11.4
2018-05-18T04:53:52.435Z,11.43
2018-05-18T04:54:18.340Z,11.36
2018-05-18T04:54:44.471Z,11.5
2018-05-18T04:55:13.144Z,11.41
2018-05-18T04:56:23.758Z,11.43
2018-05-18T04:56:57.226Z,11.4
2018-05-18T04:57:22.649Z,11.37
2018-05-18T04:57:48.276Z,11.43
2018-05-18T04:58:13.676Z,11.43
2018-05-18T04:58:39.456Z,11.35
2018-05-18T04:59:04.806Z,11.35
2018-05-18T04:59:30.789Z,11.4
2018-05-18T04:59:56.548Z,11.32
2018-05-18T05:00:21.877Z,11.35
2018-05-18T05:00:47.392Z,11.36
2018-05-18T05:01:12.981Z,11.43
2018-05-18T05:01:38.585Z,11.32
2018-05-18T05:02:04.070Z,11.48
2018-05-18T05:02:29.755Z,11.4
2018-05-18T05:02:55.179Z,11.4
2018-05-18T05:03:21.070Z,11.52
2018-05-18T05:03:46.491Z,11.35
2018-05-18T05:04:13.071Z,11.4
2018-05-18T05:04:38.649Z,11.41
2018-05-18T05:05:04.325Z,11.45
2018-05-18T05:05:31.072Z,11.44
2018-05-18T05:05:56.314Z,11.32
2018-05-18T05:06:22.552Z,11.44
2018-05-18T05:06:48.713Z,11.37
2018-05-18T05:07:13.744Z,11.4
2018-05-18T05:07:39.785Z,11.43
2018-05-18T05:08:05.489Z,11.43
2018-05-18T05:08:31.053Z,11.37
2018-05-18T05:08:56.752Z,11.4
2018-05-18T05:09:22.638Z,11.36
2018-05-18T05:09:48.601Z,11.43
2018-05-18T05:10:14.931Z,11.43
2018-05-18T05:10:40.150Z,11.45
2018-05-18T05:11:06.577Z,11.54
2018-05-18T05:11:32.518Z,11.44
2018-05-18T05:11:58.241Z,11.47
2018-05-18T05:12:23.725Z,11.44
2018-05-18T05:12:49.365Z,11.51
2018-05-18T05:13:15.016Z,11.57
2018-05-18T05:13:40.434Z,11.54
2018-05-18T05:14:05.930Z,11.54
2018-05-18T05:14:31.503Z,11.5
2018-05-18T05:14:56.896Z,11.51
2018-05-18T05:15:22.392Z,11.51
2018-05-18T05:15:48.015Z,11.54
2018-05-18T05:16:13.487Z,11.54
2018-05-18T05:16:38.930Z,11.48
2018-05-18T05:17:04.491Z,11.5
2018-05-18T05:17:29.989Z,11.51
2018-05-18T05:17:55.521Z,11.57
2018-05-18T05:18:20.925Z,11.54
2018-05-18T05:18:46.380Z,11.55
2018-05-18T05:19:11.849Z,11.55
2018-05-18T05:19:37.386Z,11.59
2018-05-18T05:20:02.821Z,11.5
2018-05-18T05:20:28.381Z,11.55
2018-05-18T05:20:53.805Z,11.65
2018-05-18T05:21:19.334Z,11.65
2018-05-18T05:21:44.870Z,11.55
2018-05-18T05:22:10.260Z,11.5
2018-05-18T05:22:35.741Z,11.59
2018-05-18T05:23:01.283Z,11.59
2018-05-18T05:23:26.976Z,11.66
2018-05-18T05:23:52.513Z,11.62
2018-05-18T05:24:18.161Z,11.62
2018-05-18T05:24:43.814Z,11.65
2018-05-18T05:25:09.646Z,11.65
2018-05-18T05:25:35.188Z,11.59
2018-05-18T05:26:00.607Z,11.62
2018-05-18T05:26:26.094Z,11.66
2018-05-18T05:26:51.689Z,11.68
2018-05-18T05:27:17.058Z,11.72
2018-05-18T05:27:43.010Z,11.66
2018-05-18T05:28:09.190Z,11.75
2018-05-18T05:28:35.992Z,11.73
2018-05-18T05:29:01.666Z,11.73
2018-05-18T05:29:27.573Z,11.73
2018-05-18T05:29:53.097Z,11.7
2018-05-18T05:30:18.688Z,11.75
2018-05-18T05:30:44.131Z,11.81
2018-05-18T05:31:09.777Z,11.77
2018-05-18T05:31:35.537Z,11.77
2018-05-18T05:32:01.593Z,11.8
2018-05-18T05:32:27.175Z,11.84
2018-05-18T05:32:54.695Z,11.77
